CheckWX is a tool to help pilots better visualize weather data.  It is not intended as a substitute for an official pre-flight weather briefing.

05:30:00 UTC

KMUT METAR
Muscatine Municipal Airport
Muscatine, Iowa, USA
Current

15 mins ago

KMUT 230515Z AUTO 00000KT 10SM CLR 16/14 A3009 RMK AO2
Observed
Aug-23 @ 05:15 UTC
Visibility
10 SM
Flight Rules
VFR
Cloud Levels
  • Clear skies
Temperature
16°C / 61°F
Dewpoint
14°C / 57°F
Humidity
88%
Altimeter
30.09" Hg
Pressure
1018.92 hPa
Previous

35 mins ago

KMUT 230455Z AUTO 00000KT 10SM CLR 16/14 A3008 RMK AO2
Observed
Aug-23 @ 04:55 UTC
Visibility
10 SM
Flight Rules
VFR
Cloud Levels
  • Clear skies
Temperature
16°C / 61°F
Dewpoint
14°C / 57°F
Humidity
88%
Altimeter
30.08" Hg
Pressure
1018.62 hPa
Previous

55 mins ago

KMUT 230435Z AUTO 00000KT 10SM CLR 17/15 A3007 RMK AO2
Observed
Aug-23 @ 04:35 UTC
Visibility
10 SM
Flight Rules
VFR
Cloud Levels
  • Clear skies
Temperature
17°C / 63°F
Dewpoint
15°C / 59°F
Humidity
88%
Altimeter
30.07" Hg
Pressure
1018.32 hPa